Time;durP1;ratioP1;P1;durP2;ratioP2;P2;SDS_P1;SDS_P2;PMS_P1;PMS_P2;Temp;Humidity;BMP_temperature;BMP_pressure;BME280_temperature;BME280_humidity;BME280_pressure;Samples;Min_cycle;Max_cycle;Signal;HPM_P1;HPM_P2
2023/04/30 00:00:01;;;;;;;;;12.60;11.80;;;;;15.59;38.03;99103.47;5031675;28;8865;-77
2023/04/30 00:02:58;;;;;;;;;16.20;15.60;;;;;15.58;37.88;99101.75;5023407;28;8865;-76
2023/04/30 00:05:27;;;;;;;;;15.20;15.00;;;;;15.59;37.76;99096.38;5047936;28;8858;-75
2023/04/30 00:07:56;;;;;;;;;16.40;16.00;;;;;15.63;37.85;99097.97;5047099;28;8939;-75
2023/04/30 00:10:26;;;;;;;;;14.60;14.00;;;;;15.66;37.98;99098.75;5064548;28;8896;-76
2023/04/30 00:12:55;;;;;;;;;13.60;13.20;;;;;15.65;37.55;99095.25;5048388;28;8854;-76
2023/04/30 00:15:24;;;;;;;;;14.40;14.40;;;;;15.59;37.79;99093.72;5047948;28;8909;-77
2023/04/30 00:17:53;;;;;;;;;16.00;16.00;;;;;15.52;38.23;99089.66;5048024;28;8904;-76
2023/04/30 00:20:22;;;;;;;;;15.20;15.00;;;;;15.51;38.03;99093.25;5053866;28;8840;-76
2023/04/30 00:22:51;;;;;;;;;17.80;17.80;;;;;15.48;38.39;99093.41;5090810;28;8866;-76
2023/04/30 00:25:23;;;;;;;;;16.60;16.00;;;;;15.41;38.33;99099.91;5090685;28;8902;-77
2023/04/30 00:27:53;;;;;;;;;18.80;17.40;;;;;15.25;39.05;99113.91;5056121;28;8924;-75
2023/04/30 00:30:22;;;;;;;;;14.60;14.60;;;;;15.05;39.29;99109.53;5088053;28;8843;-76
2023/04/30 00:32:50;;;;;;;;;17.40;17.40;;;;;14.49;40.56;99110.28;5090468;28;8944;-76
2023/04/30 00:35:19;;;;;;;;;17.00;17.00;;;;;14.51;40.65;99102.28;5090460;28;8840;-76
2023/04/30 00:37:48;;;;;;;;;19.20;18.20;;;;;14.39;41.04;99103.69;5089468;28;8874;-75
2023/04/30 00:40:17;;;;;;;;;16.20;13.80;;;;;14.16;41.72;99102.03;5122176;27;8852;-75
2023/04/30 00:42:47;;;;;;;;;21.80;20.00;;;;;13.75;42.83;99097.56;5105361;28;8908;-75
2023/04/30 00:45:20;;;;;;;;;20.60;17.80;;;;;14.16;41.51;99100.25;5122080;27;8856;-75
2023/04/30 00:47:49;;;;;;;;;4.00;4.00;;;;;14.39;40.81;99090.44;5105066;28;8916;-76
2023/04/30 00:50:19;;;;;;;;;19.40;18.80;;;;;14.58;40.20;99090.50;5089761;28;8935;-75
2023/04/30 00:52:47;;;;;;;;;24.20;22.60;;;;;14.75;40.01;99084.47;5087021;28;8836;-78
2023/04/30 00:55:17;;;;;;;;;23.40;21.40;;;;;14.87;39.39;99086.56;5088213;28;8866;-77
2023/04/30 00:57:46;;;;;;;;;26.60;23.60;;;;;15.00;39.43;99076.25;5089603;28;8856;-76
2023/04/30 01:00:18;;;;;;;;;12.80;12.00;;;;;15.08;38.91;99082.06;5089884;28;8847;-74
2023/04/30 01:02:46;;;;;;;;;28.00;24.80;;;;;14.83;39.85;99085.84;5087618;28;8936;-76
2023/04/30 01:05:15;;;;;;;;;30.25;27.50;;;;;14.91;39.87;99090.78;5089369;28;8866;-75
2023/04/30 01:07:45;;;;;;;;;23.25;22.00;;;;;14.97;39.68;99089.66;5088133;28;8860;-76
2023/04/30 01:10:15;;;;;;;;;29.80;28.60;;;;;14.99;39.70;99093.09;5020702;28;8851;-76
2023/04/30 01:12:50;;;;;;;;;22.50;21.00;;;;;14.35;41.40;99094.16;5070958;28;8864;-76
2023/04/30 01:15:27;;;;;;;;;29.75;29.00;;;;;13.79;43.08;99092.97;5121726;27;8865;-76
2023/04/30 01:17:59;;;;;;;;;32.60;29.80;;;;;14.22;41.76;99094.69;5087436;28;8851;-76
2023/04/30 01:20:30;;;;;;;;;30.50;27.75;;;;;14.46;41.43;99092.75;5071178;28;8847;-79
2023/04/30 01:23:14;;;;;;;;;30.25;28.00;;;;;14.74;40.88;99090.72;5122142;27;8839;-76
2023/04/30 01:26:00;;;;;;;;;23.80;22.00;;;;;14.92;40.20;99091.66;5088363;28;8863;-76
2023/04/30 01:28:32;;;;;;;;;23.20;22.40;;;;;14.92;40.07;99096.94;5087303;28;8912;-76
2023/04/30 01:31:01;;;;;;;;;23.60;23.20;;;;;14.98;39.79;99096.63;5086506;28;8862;-76
2023/04/30 01:33:29;;;;;;;;;24.00;23.40;;;;;14.90;39.91;99097.00;5087270;28;8952;-75
2023/04/30 01:36:37;;;;;;;;;23.60;19.40;;;;;14.82;40.05;99093.84;5086903;28;8852;-75
2023/04/30 01:39:21;;;;;;;;;22.60;20.60;;;;;14.93;39.76;99090.72;5024009;28;8874;-77
2023/04/30 01:41:58;;;;;;;;;26.60;25.60;;;;;14.88;39.96;99093.56;5009184;28;9037;-77
2023/04/30 01:44:53;;;;;;;;;22.80;21.20;;;;;14.97;39.84;99087.84;5009048;28;8879;-75
2023/04/30 01:47:33;;;;;;;;;25.25;22.75;;;;;14.84;40.21;99084.06;4993263;28;8847;-76
2023/04/30 01:50:13;;;;;;;;;30.75;29.50;;;;;14.52;41.15;99085.50;5009075;28;8865;-76
2023/04/30 01:52:47;;;;;;;;;26.50;26.25;;;;;14.10;42.08;99089.94;5004681;28;8939;-76
2023/04/30 01:55:22;;;;;;;;;27.50;26.25;;;;;13.80;42.66;99090.31;4979253;28;8863;-76
2023/04/30 01:57:57;;;;;;;;;27.50;26.25;;;;;13.51;43.28;99091.47;5041565;28;8848;-76
2023/04/30 02:00:29;;;;;;;;;27.00;24.00;;;;;13.26;43.50;99100.38;5042246;28;8940;-75
2023/04/30 02:02:59;;;;;;;;;24.25;22.00;;;;;13.42;43.40;99097.13;5025184;28;8932;-76
2023/04/30 02:05:27;;;;;;;;;26.50;22.00;;;;;13.71;42.60;99103.84;5008991;28;8886;-76
2023/04/30 02:07:56;;;;;;;;;22.00;20.40;;;;;13.95;42.10;99101.16;5001908;28;8932;-77
2023/04/30 02:10:26;;;;;;;;;20.80;20.60;;;;;14.14;41.69;99088.88;5005849;28;8862;-76
2023/04/30 02:12:55;;;;;;;;;19.25;18.50;;;;;14.30;41.38;99094.38;5005957;28;8876;-76
2023/04/30 02:15:24;;;;;;;;;22.80;22.80;;;;;14.45;40.86;99084.88;5030814;28;8856;-76
2023/04/30 02:17:54;;;;;;;;;20.00;19.60;;;;;14.60;40.77;99092.16;5088667;28;8933;-75
2023/04/30 02:20:23;;;;;;;;;25.00;22.20;;;;;14.71;40.34;99083.72;5037036;28;8859;-76
2023/04/30 02:22:53;;;;;;;;;23.00;20.00;;;;;14.77;40.13;99086.16;5068840;28;8928;-76
2023/04/30 02:25:21;;;;;;;;;18.80;18.20;;;;;14.83;40.17;99080.56;5087305;28;8844;-76
2023/04/30 02:27:50;;;;;;;;;4.00;3.00;;;;;14.92;40.06;99084.56;5121326;27;8916;-75
2023/04/30 02:30:19;;;;;;;;;23.00;21.20;;;;;14.99;40.09;99090.44;5086093;28;8832;-76
2023/04/30 02:32:48;;;;;;;;;20.00;20.00;;;;;15.07;39.85;99098.88;5088684;28;9664;-76
2023/04/30 02:35:18;;;;;;;;;23.40;22.60;;;;;15.08;39.82;99083.88;5104061;28;8855;-76
2023/04/30 02:37:47;;;;;;;;;23.60;23.00;;;;;15.12;39.84;99090.72;5094867;28;8966;-75
2023/04/30 02:40:16;;;;;;;;;25.60;24.00;;;;;15.19;39.81;99089.50;5087012;28;8860;-75
2023/04/30 02:42:45;;;;;;;;;20.80;20.40;;;;;15.27;39.77;99091.78;5087106;28;8831;-76
2023/04/30 02:45:14;;;;;;;;;22.00;21.60;;;;;15.30;39.95;99094.28;5088159;28;8936;-76
2023/04/30 02:47:43;;;;;;;;;21.40;20.80;;;;;15.34;39.70;99086.13;5088460;28;8852;-77
2023/04/30 02:50:11;;;;;;;;;19.20;19.00;;;;;15.38;39.43;99097.44;5072501;28;9705;-76
2023/04/30 02:52:42;;;;;;;;;18.00;18.00;;;;;15.40;39.29;99093.78;5061745;28;8857;-77
2023/04/30 02:55:10;;;;;;;;;19.80;18.80;;;;;15.41;39.17;99103.41;5036014;28;8899;-75
2023/04/30 02:57:40;;;;;;;;;17.00;14.60;;;;;15.44;39.01;99091.84;5058007;28;8858;-75
2023/04/30 03:00:10;;;;;;;;;17.00;17.00;;;;;15.49;39.05;99097.78;5055909;28;8845;-75
2023/04/30 03:02:39;;;;;;;;;22.00;20.60;;;;;15.52;38.90;99099.41;5089852;28;8830;-76
2023/04/30 03:05:09;;;;;;;;;18.80;16.80;;;;;15.52;38.75;99102.06;5106744;28;8849;-76
2023/04/30 03:07:38;;;;;;;;;22.80;20.80;;;;;15.52;38.77;99094.97;5099429;28;8861;-75
2023/04/30 03:10:09;;;;;;;;;20.20;19.40;;;;;15.57;39.26;99094.75;5073347;28;8900;-76
2023/04/30 03:12:38;;;;;;;;;21.80;20.80;;;;;15.52;39.24;99094.97;5089603;28;8876;-76
2023/04/30 03:15:08;;;;;;;;;20.60;19.60;;;;;15.47;39.44;99096.97;5089664;28;8955;-76
2023/04/30 03:17:37;;;;;;;;;22.80;21.80;;;;;15.45;39.29;99098.84;5039458;28;8837;-76
2023/04/30 03:20:07;;;;;;;;;18.20;18.20;;;;;15.38;39.11;99102.72;5089398;28;8856;-76
2023/04/30 03:22:36;;;;;;;;;20.40;19.20;;;;;15.33;39.22;99102.94;5067537;28;8862;-76
2023/04/30 03:25:06;;;;;;;;;23.00;22.80;;;;;15.30;39.34;99099.56;5104127;28;8904;-76
2023/04/30 03:27:36;;;;;;;;;23.20;19.60;;;;;15.27;39.48;99105.88;5087158;28;8935;-76
2023/04/30 03:30:06;;;;;;;;;25.60;23.00;;;;;15.23;39.96;99104.31;5069022;28;9657;-76
2023/04/30 03:32:35;;;;;;;;;24.00;23.20;;;;;15.22;39.87;99106.09;5052464;28;8963;-77
2023/04/30 03:35:04;;;;;;;;;19.20;18.40;;;;;15.18;39.95;99103.66;5087034;28;9497;-75
2023/04/30 03:37:33;;;;;;;;;21.80;21.60;;;;;15.16;39.72;99109.03;5054928;28;8924;-76
2023/04/30 03:40:03;;;;;;;;;24.00;23.00;;;;;15.12;39.83;99111.91;5091858;28;9021;-77
2023/04/30 03:42:32;;;;;;;;;28.25;26.00;;;;;14.66;41.51;99113.03;5090170;28;8859;-76
2023/04/30 03:45:03;;;;;;;;;26.75;26.75;;;;;14.70;42.00;99121.72;5090058;28;8843;-76
2023/04/30 03:47:32;;;;;;;;;28.00;26.50;;;;;14.52;42.83;99118.06;5090016;28;8847;-77
2023/04/30 03:50:00;;;;;;;;;36.25;34.25;;;;;14.17;43.76;99119.59;5072530;28;8898;-75
2023/04/30 03:52:30;;;;;;;;;26.50;25.75;;;;;14.08;43.56;99129.66;5088993;28;8851;-76
2023/04/30 03:54:58;;;;;;;;;28.50;27.75;;;;;13.45;45.01;99145.38;5088249;28;8874;-76
2023/04/30 03:57:27;;;;;;;;;32.25;28.75;;;;;12.69;47.07;99149.97;5089858;28;8863;-76
2023/04/30 03:59:56;;;;;;;;;31.00;31.00;;;;;12.38;48.09;99152.81;5090983;28;8879;-75
2023/04/30 04:02:26;;;;;;;;;29.75;28.50;;;;;12.87;46.71;99156.38;5087286;28;8851;-75
2023/04/30 04:04:55;;;;;;;;;35.00;32.00;;;;;13.17;46.19;99161.44;5081170;28;8843;-75
2023/04/30 04:07:24;;;;;;;;;31.75;31.25;;;;;13.40;45.20;99162.34;5088325;28;8873;-76
2023/04/30 04:09:53;;;;;;;;;32.00;28.75;;;;;13.56;45.00;99159.94;5048505;28;9606;-76
2023/04/30 04:12:22;;;;;;;;;29.00;28.75;;;;;13.75;44.30;99162.72;5089087;28;8855;-77
2023/04/30 04:14:51;;;;;;;;;31.25;30.00;;;;;13.75;44.16;99170.63;5071018;28;8856;-76
2023/04/30 04:17:20;;;;;;;;;22.25;21.25;;;;;13.65;44.61;99172.78;5077248;28;8879;-75
2023/04/30 04:19:50;;;;;;;;;39.50;35.00;;;;;13.83;44.07;99169.44;5096453;28;8851;-75
2023/04/30 04:22:19;;;;;;;;;38.75;35.00;;;;;13.97;43.71;99173.31;5088738;28;8847;-77
2023/04/30 04:24:48;;;;;;;;;33.25;31.75;;;;;14.14;43.36;99177.91;5088330;28;9001;-76
2023/04/30 04:27:21;;;;;;;;;26.00;24.75;;;;;14.09;43.13;99181.59;5088789;28;8870;-75
2023/04/30 04:29:50;;;;;;;;;26.50;25.75;;;;;14.26;42.89;99186.19;5088353;28;8855;-76
2023/04/30 04:32:18;;;;;;;;;27.25;25.25;;;;;14.40;42.59;99180.31;5088533;28;8852;-78
2023/04/30 04:34:53;;;;;;;;;70.50;55.75;;;;;14.50;42.63;99180.75;5088600;28;8864;-76
2023/04/30 04:37:22;;;;;;;;;33.25;32.25;;;;;14.51;42.42;99189.53;5087456;28;9748;-78
2023/04/30 04:39:51;;;;;;;;;32.00;31.00;;;;;14.59;42.47;99195.38;5088393;28;8855;-76
2023/04/30 04:42:20;;;;;;;;;26.25;26.25;;;;;14.65;41.99;99203.03;5089317;28;8859;-76
2023/04/30 04:44:49;;;;;;;;;32.00;30.25;;;;;14.64;42.13;99207.50;5088407;28;8843;-77
2023/04/30 04:47:21;;;;;;;;;29.75;28.75;;;;;14.66;41.96;99204.78;5105299;28;8863;-77
2023/04/30 04:49:51;;;;;;;;;33.75;31.75;;;;;14.70;41.99;99209.00;5088065;28;8877;-76
2023/04/30 04:52:20;;;;;;;;;80.75;69.50;;;;;14.71;42.02;99207.22;5090618;28;8891;-76
2023/04/30 04:54:52;;;;;;;;;56.00;46.25;;;;;14.75;41.72;99200.88;5105405;28;9906;-77
2023/04/30 04:57:21;;;;;;;;;37.50;32.75;;;;;14.75;41.73;99204.38;5054343;28;8832;-76
2023/04/30 04:59:50;;;;;;;;;37.00;32.00;;;;;14.73;41.49;99210.69;5087975;28;8867;-76
2023/04/30 05:02:20;;;;;;;;;39.00;34.50;;;;;14.72;41.54;99214.25;5033155;28;8926;-76
2023/04/30 05:04:49;;;;;;;;;128.25;114.75;;;;;14.70;41.67;99222.25;5066510;28;9563;-77
2023/04/30 05:07:21;;;;;;;;;59.50;48.25;;;;;14.68;41.53;99216.16;5048774;28;11561;-76
2023/04/30 05:09:49;;;;;;;;;45.25;37.00;;;;;14.63;41.53;99226.91;5066531;28;8842;-77
2023/04/30 05:12:18;;;;;;;;;38.00;34.00;;;;;14.65;41.58;99227.72;5048573;28;8920;-77
2023/04/30 05:14:48;;;;;;;;;38.00;33.25;;;;;14.60;41.49;99226.19;5066419;28;8861;-77
2023/04/30 05:17:17;;;;;;;;;37.50;33.75;;;;;14.55;41.74;99229.03;5066492;28;8830;-76
2023/04/30 05:19:47;;;;;;;;;44.25;36.75;;;;;14.54;41.54;99227.31;5000642;28;8857;-76
2023/04/30 05:22:17;;;;;;;;;63.25;50.00;;;;;14.35;42.01;99229.00;4952759;28;9019;-78
2023/04/30 05:24:47;;;;;;;;;43.25;38.00;;;;;14.21;42.48;99225.16;5026026;28;8866;-78
2023/04/30 05:27:16;;;;;;;;;25.25;24.50;;;;;14.25;42.47;99226.75;5026225;28;9646;-76
2023/04/30 05:29:44;;;;;;;;;39.25;34.75;;;;;14.14;42.71;99233.41;4993635;28;8888;-77
2023/04/30 05:32:13;;;;;;;;;66.67;53.67;;;;;14.08;43.09;99238.00;5025663;28;8849;-77
2023/04/30 05:34:42;;;;;;;;;64.25;50.75;;;;;14.09;43.17;99238.84;5045671;28;9040;-77
2023/04/30 05:37:13;;;;;;;;;39.50;35.00;;;;;13.81;43.71;99247.91;5044514;28;8842;-76
2023/04/30 05:39:42;;;;;;;;;47.75;39.00;;;;;14.06;43.44;99242.50;5045522;28;9027;-76
2023/04/30 05:42:12;;;;;;;;;40.50;35.00;;;;;14.28;43.07;99238.97;5045522;28;8873;-76
2023/04/30 05:44:41;;;;;;;;;42.50;38.50;;;;;14.02;43.43;99254.13;5029240;28;8862;-75
2023/04/30 05:47:09;;;;;;;;;51.00;42.25;;;;;14.20;43.04;99244.56;5045668;28;9097;-78
2023/04/30 05:49:38;;;;;;;;;34.75;32.75;;;;;14.41;42.62;99245.50;5046060;28;8850;-75
2023/04/30 05:52:07;;;;;;;;;47.75;39.25;;;;;14.67;42.47;99248.81;5044789;28;8921;-76
2023/04/30 05:54:36;;;;;;;;;43.00;37.50;;;;;14.75;42.21;99245.88;5046192;28;8862;-76
2023/04/30 05:57:04;;;;;;;;;46.00;38.25;;;;;14.98;41.69;99242.22;5050104;28;8848;-78
2023/04/30 05:59:36;;;;;;;;;43.25;37.75;;;;;15.18;41.50;99244.84;5088021;28;8848;-77
2023/04/30 06:02:04;;;;;;;;;47.50;40.00;;;;;15.26;40.82;99236.56;5088218;28;8860;-78
2023/04/30 06:04:33;;;;;;;;;40.75;36.75;;;;;15.44;40.93;99251.59;5088220;28;8850;-75
2023/04/30 06:07:03;;;;;;;;;45.25;37.25;;;;;15.57;40.60;99251.91;5086851;28;8816;-76
2023/04/30 06:09:31;;;;;;;;;57.25;46.25;;;;;15.64;40.55;99261.34;5087839;28;8885;-77
2023/04/30 06:12:01;;;;;;;;;54.00;43.50;;;;;15.50;40.70;99258.41;5086870;28;10029;-78
2023/04/30 06:14:30;;;;;;;;;47.50;39.25;;;;;15.63;40.48;99261.41;5085060;28;9037;-77
2023/04/30 06:17:00;;;;;;;;;47.75;39.00;;;;;14.99;41.69;99260.69;5076154;28;8844;-76
2023/04/30 06:19:29;;;;;;;;;45.75;39.25;;;;;15.30;41.54;99263.75;5051927;28;8848;-77
2023/04/30 06:22:00;;;;;;;;;44.50;38.00;;;;;15.51;40.97;99256.63;5084414;28;8862;-76
2023/04/30 06:24:29;;;;;;;;;47.50;39.00;;;;;15.70;40.85;99260.19;5075993;28;8909;-76
2023/04/30 06:26:58;;;;;;;;;61.25;49.50;;;;;15.93;40.41;99258.25;5088001;28;8870;-77
2023/04/30 06:29:27;;;;;;;;;49.25;40.50;;;;;15.97;39.92;99263.31;5086013;28;8875;-78
2023/04/30 06:31:56;;;;;;;;;48.25;40.50;;;;;16.17;39.96;99264.13;5087768;28;10086;-73
2023/04/30 06:34:26;;;;;;;;;48.00;39.00;;;;;16.34;39.70;99269.50;5069159;28;8855;-75
2023/04/30 06:36:55;;;;;;;;;49.25;40.00;;;;;16.41;39.24;99267.38;5019113;28;8856;-73
2023/04/30 06:39:24;;;;;;;;;46.50;40.00;;;;;16.15;39.99;99273.94;5087988;28;8863;-75
2023/04/30 06:41:53;;;;;;;;;49.50;40.50;;;;;15.87;40.18;99270.00;5053900;28;9598;-76
2023/04/30 06:46:09;;;;;;;;;142.75;130.50;;;;;15.66;41.58;99270.97;5103904;27;13487;-74
2023/04/30 06:48:38;;;;;;;;;47.75;40.50;;;;;16.07;40.50;99270.81;5099857;28;11610;-70
2023/04/30 10:05:18;;;;;;;;;26.50;24.50;;;;;15.18;43.84;99262.53;5099278;27;13417;-70
2023/04/30 10:07:47;;;;;;;;;26.50;25.50;;;;;15.57;42.85;99259.00;5053634;28;8878;-73
2023/04/30 10:10:16;;;;;;;;;25.00;23.40;;;;;15.35;42.57;99257.31;5095223;28;8866;-72
2023/04/30 10:23:32;;;;;;;;;38.25;32.75;;;;;14.81;45.34;99251.78;5093596;27;13562;-71
2023/04/30 10:26:02;;;;;;;;;36.25;32.00;;;;;15.15;44.26;99247.66;5084734;28;8858;-69
2023/04/30 10:28:32;;;;;;;;;37.00;33.00;;;;;15.49;43.63;99242.59;5084876;28;8951;-69
2023/04/30 10:31:01;;;;;;;;;29.75;29.25;;;;;16.05;42.83;99243.53;5084496;28;8854;-67
2023/04/30 10:33:37;;;;;;;;;36.00;33.00;;;;;16.25;41.84;99242.53;5084437;28;8872;-67
2023/04/30 10:36:11;;;;;;;;;28.75;28.00;;;;;16.17;42.70;99238.50;5081693;28;8879;-71
2023/04/30 10:38:41;;;;;;;;;25.25;25.25;;;;;15.98;44.26;99241.19;5082669;28;8862;-70
2023/04/30 10:41:10;;;;;;;;;29.25;27.25;;;;;16.31;44.02;99237.81;5083685;28;8931;-70
2023/04/30 10:43:39;;;;;;;;;27.50;27.50;;;;;16.53;43.95;99237.63;5083611;28;8865;-79
2023/04/30 10:46:08;;;;;;;;;23.20;22.60;;;;;17.10;43.36;99241.81;5080491;28;8876;-74
2023/04/30 10:48:37;;;;;;;;;23.00;21.75;;;;;16.85;43.66;99229.78;5082018;28;8898;-74
2023/04/30 10:51:09;;;;;;;;;24.80;24.80;;;;;17.07;43.33;99228.66;5083405;28;8862;-75
2023/04/30 10:53:39;;;;;;;;;23.20;21.00;;;;;17.29;42.29;99217.81;5080629;28;8967;-74
2023/04/30 10:56:09;;;;;;;;;20.20;19.00;;;;;17.58;41.28;99221.50;5081373;28;8885;-76
2023/04/30 10:58:39;;;;;;;;;25.00;23.60;;;;;17.90;40.97;99218.84;5070153;28;9600;-74
2023/04/30 11:01:12;;;;;;;;;12.80;12.60;;;;;18.14;40.40;99200.69;5082781;28;8928;-74
2023/04/30 11:03:42;;;;;;;;;21.20;19.20;;;;;17.15;41.58;99214.03;5052568;28;8855;-82
2023/04/30 11:06:13;;;;;;;;;23.60;23.60;;;;;17.65;40.18;99201.63;5065396;28;8870;-73
2023/04/30 11:08:44;;;;;;;;;23.80;23.20;;;;;17.73;39.34;99207.34;5080755;28;8863;-76
2023/04/30 11:11:20;;;;;;;;;35.25;30.75;;;;;17.75;39.79;99201.97;5077556;28;8836;-73
2023/04/30 11:13:59;;;;;;;;;21.40;21.40;;;;;17.98;39.72;99204.16;5072072;28;8902;-76
2023/04/30 11:16:29;;;;;;;;;22.40;22.00;;;;;17.20;40.84;99204.03;5080656;28;8871;-72
2023/04/30 11:19:06;;;;;;;;;24.20;23.80;;;;;17.53;41.39;99197.84;5079035;28;8863;-75
2023/04/30 11:21:40;;;;;;;;;26.00;24.75;;;;;17.51;42.14;99198.88;5068826;28;8952;-72
2023/04/30 11:24:09;;;;;;;;;27.00;26.50;;;;;17.38;43.76;99204.88;5079194;28;8859;-74
2023/04/30 11:27:05;;;;;;;;;22.60;22.60;;;;;18.06;45.53;99205.56;5076125;28;8898;-73
2023/04/30 11:29:34;;;;;;;;;24.75;24.50;;;;;17.75;43.74;99217.91;5062633;28;8925;-78
2023/04/30 11:32:04;;;;;;;;;31.25;31.00;;;;;16.77;47.67;99218.72;5080633;28;8848;-76
2023/04/30 11:34:35;;;;;;;;;25.50;25.00;;;;;16.28;50.13;99234.44;5051669;28;9663;-77
2023/04/30 11:37:04;;;;;;;;;30.00;29.50;;;;;15.93;51.30;99227.28;5048041;28;8892;-73
2023/04/30 11:39:36;;;;;;;;;31.00;30.00;;;;;15.99;50.13;99234.94;5049896;28;8894;-73
2023/04/30 11:42:07;;;;;;;;;30.75;30.25;;;;;16.14;50.41;99230.69;5066603;28;8872;-72
2023/04/30 11:44:37;;;;;;;;;26.75;26.00;;;;;16.40;50.16;99232.03;5066791;28;8883;-72
2023/04/30 11:47:06;;;;;;;;;28.50;26.00;;;;;16.76;50.65;99224.97;5066831;28;8894;-72
2023/04/30 11:49:35;;;;;;;;;27.50;27.50;;;;;16.96;48.53;99229.22;5066657;28;8844;-75
2023/04/30 11:52:04;;;;;;;;;26.00;25.80;;;;;16.99;47.93;99229.06;5053900;28;8865;-74
2023/04/30 11:54:33;;;;;;;;;28.00;24.25;;;;;16.95;48.18;99225.72;5062618;28;8874;-73
2023/04/30 11:57:03;;;;;;;;;27.00;24.20;;;;;16.94;49.42;99234.63;5069406;28;8881;-75
2023/04/30 11:59:40;;;;;;;;;30.50;29.50;;;;;16.75;50.66;99237.38;5069791;28;8823;-71
2023/04/30 12:02:09;;;;;;;;;34.50;32.50;;;;;16.88;51.80;99240.25;5068093;28;9624;-70
2023/04/30 12:04:43;;;;;;;;;31.25;29.50;;;;;16.72;53.22;99253.47;5050142;28;8869;-70
2023/04/30 12:07:12;;;;;;;;;36.25;32.25;;;;;16.39;55.02;99261.28;5053411;28;8851;-70
2023/04/30 12:09:53;;;;;;;;;27.40;26.40;;;;;16.11;53.76;99270.59;5017731;28;8861;-70
2023/04/30 12:12:27;;;;;;;;;21.60;20.40;;;;;16.00;51.05;99249.91;5054341;28;8857;-77
2023/04/30 12:14:58;;;;;;;;;19.00;18.00;;;;;15.94;49.61;99225.47;5068737;28;8854;-76
2023/04/30 12:17:32;;;;;;;;;12.80;11.80;;;;;15.95;45.46;99220.13;5068468;28;9004;-77
2023/04/30 12:20:01;;;;;;;;;11.20;10.60;;;;;16.00;44.07;99211.91;5069727;28;8862;-78
2023/04/30 12:22:30;;;;;;;;;15.60;15.40;;;;;16.08;44.92;99216.84;5063800;28;8907;-77
2023/04/30 12:25:01;;;;;;;;;13.20;13.20;;;;;16.06;46.75;99213.41;5050175;28;8851;-77
2023/04/30 12:27:30;;;;;;;;;21.80;21.80;;;;;16.12;48.03;99218.44;5049894;28;8860;-78
2023/04/30 12:30:06;;;;;;;;;25.75;25.25;;;;;16.25;50.25;99216.91;5048777;28;8860;-78
2023/04/30 12:32:40;;;;;;;;;30.25;28.00;;;;;16.29;51.25;99215.81;5026111;28;9604;-78
2023/04/30 12:35:14;;;;;;;;;26.75;26.75;;;;;16.41;50.24;99206.38;5019000;28;9597;-79
2023/04/30 12:37:44;;;;;;;;;27.25;24.25;;;;;16.53;50.77;99200.47;5067259;28;8850;-79
2023/04/30 12:40:14;;;;;;;;;35.75;32.50;;;;;16.69;50.73;99208.50;5069687;28;8996;-77
2023/04/30 12:42:43;;;;;;;;;34.75;32.50;;;;;16.76;50.78;99201.94;5050867;28;8900;-78
2023/04/30 12:45:14;;;;;;;;;36.00;32.75;;;;;16.83;51.76;99198.97;5068717;28;8933;-79
2023/04/30 12:47:42;;;;;;;;;34.25;32.25;;;;;16.93;52.71;99193.09;5069498;28;9001;-78
2023/04/30 12:50:12;;;;;;;;;35.75;33.00;;;;;17.15;53.27;99183.97;5069946;28;8889;-79
2023/04/30 12:52:41;;;;;;;;;43.75;37.50;;;;;17.83;51.41;99175.78;5062243;28;8853;-80
2023/04/30 12:55:18;;;;;;;;;35.50;33.75;;;;;18.83;49.25;99163.78;5048230;28;8939;-79
2023/04/30 12:58:07;;;;;;;;;37.25;34.75;;;;;20.01;47.72;99166.94;5049595;28;8833;-80
2023/04/30 13:00:49;;;;;;;;;45.00;37.75;;;;;20.93;45.27;99157.19;5048234;28;8880;-77
2023/04/30 13:03:20;;;;;;;;;31.00;30.50;;;;;20.87;42.83;99168.28;5060598;28;8845;-79
2023/04/30 13:05:51;;;;;;;;;38.25;33.75;;;;;20.57;43.93;99163.25;5049315;28;8861;-79
2023/04/30 13:08:20;;;;;;;;;37.50;33.25;;;;;20.34;43.16;99164.81;5061271;28;8843;-79
2023/04/30 13:10:49;;;;;;;;;40.50;35.50;;;;;20.35;44.24;99171.84;5068238;28;8854;-81
2023/04/30 13:13:19;;;;;;;;;37.25;34.25;;;;;20.25;44.88;99171.63;5068281;28;8862;-81
2023/04/30 13:15:49;;;;;;;;;38.00;34.25;;;;;19.86;45.98;99165.28;5035046;28;8850;-80
2023/04/30 13:18:18;;;;;;;;;29.50;28.25;;;;;19.48;43.43;99164.13;5067957;28;8989;-81
2023/04/30 13:20:46;;;;;;;;;30.67;29.67;;;;;19.45;43.18;99156.31;5054179;28;8865;-81
2023/04/30 13:23:15;;;;;;;;;33.00;31.50;;;;;19.55;42.66;99153.09;5060421;28;8850;-82
2023/04/30 13:25:44;;;;;;;;;34.50;31.50;;;;;19.51;41.49;99145.28;5051209;28;8873;-81
2023/04/30 13:28:13;;;;;;;;;23.60;23.60;;;;;19.44;40.40;99146.63;5068836;28;8858;-79
2023/04/30 13:30:42;;;;;;;;;25.50;23.50;;;;;19.48;38.69;99145.47;5067360;28;8842;-80
2023/04/30 13:33:12;;;;;;;;;26.25;25.75;;;;;19.57;39.90;99144.03;5067582;28;8975;-79
2023/04/30 13:35:41;;;;;;;;;34.75;31.25;;;;;19.58;40.33;99139.56;5017659;28;8882;-79
2023/04/30 13:38:10;;;;;;;;;31.25;29.25;;;;;19.52;39.85;99141.69;5019785;28;8853;-80
2023/04/30 13:40:39;;;;;;;;;29.75;27.75;;;;;19.69;40.20;99137.91;5047372;28;8971;-81
2023/04/30 13:43:08;;;;;;;;;25.00;24.00;;;;;19.39;39.86;99146.06;5049718;28;8833;-79
2023/04/30 13:45:37;;;;;;;;;23.00;22.00;;;;;19.62;39.53;99139.25;5062019;28;8871;-79
2023/04/30 13:48:07;;;;;;;;;24.20;22.20;;;;;19.71;39.63;99145.81;5054543;28;8881;-80
2023/04/30 13:50:37;;;;;;;;;27.40;24.40;;;;;19.91;40.38;99141.81;5068837;28;8870;-81
2023/04/30 13:53:06;;;;;;;;;26.20;26.20;;;;;20.03;41.08;99143.69;5008134;28;8833;-78
2023/04/30 13:55:35;;;;;;;;;25.80;24.40;;;;;20.15;40.61;99143.81;5047428;28;8907;-79
2023/04/30 13:58:04;;;;;;;;;27.00;25.00;;;;;20.22;39.19;99140.63;5048349;28;8861;-79
2023/04/30 14:00:32;;;;;;;;;26.20;25.40;;;;;20.25;38.31;99140.44;5046847;28;8875;-80
2023/04/30 14:03:01;;;;;;;;;22.80;22.60;;;;;20.27;38.50;99141.22;5029447;28;8848;-79
2023/04/30 14:05:33;;;;;;;;;25.40;24.60;;;;;20.36;38.77;99126.38;5046539;28;8837;-79
2023/04/30 14:08:05;;;;;;;;;24.00;23.00;;;;;20.46;38.78;99131.94;5033881;28;8864;-80
2023/04/30 14:10:33;;;;;;;;;25.40;24.20;;;;;20.41;38.19;99134.94;5034484;28;8923;-80
2023/04/30 14:13:02;;;;;;;;;26.00;26.00;;;;;20.41;38.24;99126.91;5068204;28;9024;-80
2023/04/30 14:15:31;;;;;;;;;25.50;25.50;;;;;20.47;38.58;99125.63;5068071;28;8913;-79
2023/04/30 14:18:00;;;;;;;;;25.80;24.40;;;;;20.51;38.74;99134.28;5068105;28;8869;-79
2023/04/30 14:20:29;;;;;;;;;25.60;24.60;;;;;20.45;38.56;99131.06;5066873;28;8858;-81
2023/04/30 14:22:58;;;;;;;;;44.75;38.50;;;;;20.19;37.97;99131.97;5057996;28;8849;-78
2023/04/30 14:25:31;;;;;;;;;43.75;36.00;;;;;20.26;38.01;99130.63;5046691;28;8896;-78
2023/04/30 14:28:00;;;;;;;;;24.75;24.75;;;;;20.27;38.20;99127.00;5032490;28;8849;-80
2023/04/30 14:30:29;;;;;;;;;26.75;26.75;;;;;20.29;39.18;99123.28;5034234;28;8874;-80
2023/04/30 14:32:58;;;;;;;;;31.00;29.50;;;;;20.29;38.33;99133.97;5068178;28;8946;-80
2023/04/30 14:35:27;;;;;;;;;23.00;19.80;;;;;20.35;38.92;99124.69;5050541;28;8870;-80
2023/04/30 14:37:56;;;;;;;;;22.40;22.20;;;;;20.41;38.56;99128.75;5066655;28;8893;-78
2023/04/30 14:40:25;;;;;;;;;25.80;25.40;;;;;20.43;38.41;99129.50;5066759;28;8866;-79
2023/04/30 14:42:55;;;;;;;;;22.00;22.00;;;;;20.57;37.89;99134.72;5032073;28;8842;-78
2023/04/30 14:45:26;;;;;;;;;24.40;23.60;;;;;20.62;37.20;99137.09;5066620;28;8972;-79
2023/04/30 14:47:55;;;;;;;;;26.60;25.00;;;;;20.49;38.21;99134.41;5066207;28;8858;-79
2023/04/30 14:50:24;;;;;;;;;20.20;20.00;;;;;20.65;37.68;99137.72;5066381;28;8850;-79
2023/04/30 14:52:53;;;;;;;;;24.00;23.60;;;;;20.56;37.40;99142.81;5057644;28;8840;-80
2023/04/30 14:55:22;;;;;;;;;26.60;23.40;;;;;20.61;37.02;99141.53;5046700;28;8865;-79
2023/04/30 14:57:51;;;;;;;;;25.00;25.00;;;;;20.75;37.17;99131.75;5046683;28;8857;-78
2023/04/30 15:00:21;;;;;;;;;23.60;22.40;;;;;20.67;37.43;99135.81;5046396;28;8869;-81
2023/04/30 15:02:50;;;;;;;;;23.50;23.25;;;;;20.67;37.01;99134.91;5056414;28;8849;-80
2023/04/30 15:05:19;;;;;;;;;26.00;25.00;;;;;20.73;36.55;99133.63;5047575;28;8865;-79